Time;durP1;ratioP1;P1;durP2;ratioP2;P2;SDS_P1;SDS_P2;PMS_P1;PMS_P2;Temp;Humidity;BMP_temperature;BMP_pressure;BME280_temperature;BME280_humidity;BME280_pressure;Samples;Min_cycle;Max_cycle;Signal;HPM_P1;HPM_P2
2023/01/15 00:01:25;;;;;;;0.63;0.13;;;10.40;99.90;;;;;;5075107;28;20422;-60
2023/01/15 00:03:53;;;;;;;0.30;0.10;;;10.40;99.90;;;;;;5073675;28;20435;-60
2023/01/15 00:06:22;;;;;;;0.40;0.20;;;10.40;99.90;;;;;;5074379;28;20468;-59
2023/01/15 00:08:49;;;;;;;0.32;0.10;;;10.40;99.90;;;;;;5075056;28;20426;-59
2023/01/15 00:11:17;;;;;;;0.40;0.20;;;10.40;99.90;;;;;;5073283;28;20412;-59
2023/01/15 00:13:45;;;;;;;0.40;0.10;;;10.40;99.90;;;;;;5072694;28;20426;-59
2023/01/15 00:16:13;;;;;;;0.40;0.10;;;10.50;99.90;;;;;;5072528;28;20419;-59
2023/01/15 00:18:42;;;;;;;0.30;0.20;;;10.50;99.90;;;;;;5072469;28;20838;-59
2023/01/15 00:21:12;;;;;;;1.00;0.20;;;10.50;99.90;;;;;;5074115;28;20425;-59
2023/01/15 00:29:12;;;;;;;0.30;0.10;;;10.60;99.90;;;;;;5073854;28;20427;-59
2023/01/15 00:31:40;;;;;;;0.30;0.10;;;10.70;99.90;;;;;;5074761;28;20419;-59
2023/01/15 00:34:08;;;;;;;0.30;0.10;;;10.70;99.90;;;;;;5074541;28;20428;-59
2023/01/15 00:36:36;;;;;;;0.40;0.20;;;10.70;99.90;;;;;;5074011;28;20416;-59
2023/01/15 00:39:04;;;;;;;0.30;0.10;;;10.70;99.90;;;;;;5074934;28;20432;-59
2023/01/15 00:41:32;;;;;;;0.40;0.20;;;10.70;99.90;;;;;;5074478;28;20718;-59
2023/01/15 00:43:59;;;;;;;0.40;0.10;;;10.60;99.90;;;;;;5074341;28;20501;-60
2023/01/15 00:46:26;;;;;;;0.30;0.10;;;10.70;99.90;;;;;;5073324;28;20423;-60
2023/01/15 00:48:53;;;;;;;0.30;0.10;;;10.70;99.90;;;;;;5072815;28;20537;-59
2023/01/15 00:51:22;;;;;;;0.50;0.40;;;10.70;99.90;;;;;;5073901;28;20890;-60
2023/01/15 00:53:49;;;;;;;0.50;0.10;;;10.70;99.90;;;;;;5073748;28;20430;-60
2023/01/15 00:56:16;;;;;;;0.80;0.10;;;10.70;99.90;;;;;;5073925;28;20897;-60
2023/01/15 00:58:45;;;;;;;0.45;0.15;;;10.70;99.90;;;;;;5074016;28;20792;-60
2023/01/15 01:01:12;;;;;;;1.08;0.10;;;10.70;99.90;;;;;;5072908;28;20423;-59
2023/01/15 01:03:39;;;;;;;0.40;0.10;;;10.70;99.90;;;;;;5072685;28;20879;-59
2023/01/15 01:06:07;;;;;;;0.30;0.10;;;10.70;99.90;;;;;;5074126;28;20420;-60
2023/01/15 01:08:35;;;;;;;0.43;0.10;;;10.60;99.90;;;;;;5073502;28;20438;-60
2023/01/15 01:11:05;;;;;;;0.30;0.10;;;10.70;99.90;;;;;;5073115;28;20427;-59
2023/01/15 01:13:34;;;;;;;0.30;0.10;;;10.70;99.90;;;;;;5072990;28;20522;-58
2023/01/15 01:16:02;;;;;;;0.70;0.20;;;10.70;99.90;;;;;;5074103;28;20438;-60
2023/01/15 01:18:29;;;;;;;0.30;0.10;;;10.60;99.90;;;;;;5073781;28;20519;-59
2023/01/15 01:20:57;;;;;;;0.30;0.10;;;10.60;99.90;;;;;;5074131;28;20779;-59
2023/01/15 01:23:24;;;;;;;0.50;0.20;;;10.70;99.90;;;;;;5074346;28;20841;-59
2023/01/15 01:25:53;;;;;;;0.38;0.10;;;10.60;99.90;;;;;;5074914;28;20436;-60
2023/01/15 01:28:20;;;;;;;0.30;0.15;;;10.60;99.90;;;;;;5077070;28;20431;-60
2023/01/15 01:30:48;;;;;;;0.30;0.10;;;10.60;99.90;;;;;;5078509;28;20435;-60
2023/01/15 01:33:15;;;;;;;0.40;0.20;;;10.60;99.90;;;;;;5078879;28;20473;-60
2023/01/15 01:35:48;;;;;;;0.40;0.20;;;10.60;99.90;;;;;;5078489;28;20486;-59
2023/01/15 01:38:15;;;;;;;0.88;0.35;;;10.60;99.90;;;;;;5077904;28;20428;-61
2023/01/15 01:40:43;;;;;;;0.60;0.30;;;10.60;99.90;;;;;;5077238;28;20518;-60
2023/01/15 01:43:20;;;;;;;0.30;0.20;;;10.60;99.90;;;;;;5076937;28;20780;-60
2023/01/15 01:45:47;;;;;;;0.40;0.20;;;10.70;99.90;;;;;;5077160;28;20427;-59
2023/01/15 01:48:17;;;;;;;0.30;0.10;;;10.70;99.90;;;;;;5076902;28;20431;-60
2023/01/15 01:50:45;;;;;;;0.30;0.10;;;10.60;99.90;;;;;;5077624;28;20434;-60
2023/01/15 01:53:17;;;;;;;0.40;0.10;;;10.60;99.90;;;;;;5077242;28;20886;-60
2023/01/15 01:55:44;;;;;;;0.70;0.20;;;10.60;99.90;;;;;;5077552;28;20419;-60
2023/01/15 01:58:14;;;;;;;0.30;0.10;;;10.60;99.90;;;;;;5077679;28;20411;-60
2023/01/15 02:00:46;;;;;;;0.30;0.10;;;10.50;99.90;;;;;;5077487;28;20478;-59
2023/01/15 02:03:13;;;;;;;0.35;0.10;;;10.50;99.90;;;;;;5077671;28;20431;-60
2023/01/15 02:05:47;;;;;;;0.30;0.10;;;10.60;99.90;;;;;;5077874;28;20495;-60
2023/01/15 02:08:14;;;;;;;0.30;0.10;;;10.70;99.90;;;;;;5077752;28;20514;-60
2023/01/15 02:10:42;;;;;;;0.40;0.15;;;10.60;99.90;;;;;;5077326;28;20882;-59
2023/01/15 02:13:15;;;;;;;0.30;0.10;;;10.60;99.90;;;;;;5077734;28;20446;-59
2023/01/15 02:15:47;;;;;;;0.30;0.10;;;10.70;99.90;;;;;;5077830;28;20427;-59
2023/01/15 02:18:23;;;;;;;0.30;0.10;;;10.70;99.90;;;;;;5077127;28;20769;-59
2023/01/15 02:20:55;;;;;;;0.50;0.10;;;10.70;99.90;;;;;;5078061;28;20427;-59
2023/01/15 02:23:43;;;;;;;0.30;0.10;;;10.80;99.90;;;;;;5077241;28;20513;-60
2023/01/15 02:26:32;;;;;;;0.30;0.10;;;10.80;99.90;;;;;;5076859;28;20415;-59
2023/01/15 02:29:02;;;;;;;0.30;0.10;;;10.80;99.90;;;;;;5076690;28;20838;-59
2023/01/15 02:31:35;;;;;;;0.80;0.10;;;10.80;99.90;;;;;;5077066;28;20429;-60
2023/01/15 02:34:06;;;;;;;0.40;0.10;;;10.90;99.90;;;;;;5076937;28;20435;-59
2023/01/15 02:36:37;;;;;;;0.50;0.10;;;10.90;99.90;;;;;;5076807;28;20775;-59
2023/01/15 02:39:10;;;;;;;0.30;0.10;;;10.90;99.90;;;;;;5075212;28;20431;-59
2023/01/15 02:41:42;;;;;;;0.30;0.10;;;11.00;99.90;;;;;;5076979;28;20776;-59
2023/01/15 02:44:13;;;;;;;0.50;0.10;;;11.00;99.90;;;;;;5076494;28;20427;-59
2023/01/15 02:46:43;;;;;;;0.30;0.10;;;11.10;99.90;;;;;;5076764;28;20419;-60
2023/01/15 02:49:14;;;;;;;0.30;0.10;;;11.10;99.90;;;;;;5076093;28;20773;-60
2023/01/15 02:51:49;;;;;;;0.40;0.10;;;11.00;99.90;;;;;;5077171;28;20506;-60
2023/01/15 02:54:18;;;;;;;0.50;0.10;;;11.00;99.90;;;;;;5076763;28;20434;-59
2023/01/15 02:56:49;;;;;;;0.77;0.10;;;11.00;99.90;;;;;;5076523;28;20420;-60
2023/01/15 02:59:21;;;;;;;0.30;0.10;;;11.00;99.90;;;;;;5076381;28;20427;-59
2023/01/15 03:01:54;;;;;;;0.30;0.10;;;11.00;99.90;;;;;;5076812;28;20506;-60
2023/01/15 03:04:28;;;;;;;0.30;0.10;;;11.10;99.90;;;;;;5076317;28;20432;-60
2023/01/15 03:07:01;;;;;;;0.30;0.10;;;11.00;99.90;;;;;;5076628;28;20791;-60
2023/01/15 03:09:29;;;;;;;0.70;0.10;;;11.10;99.90;;;;;;5076380;28;20493;-60
2023/01/15 03:12:04;;;;;;;0.30;0.10;;;11.10;99.90;;;;;;5076698;28;20424;-61
2023/01/15 03:14:37;;;;;;;0.70;0.10;;;11.10;99.90;;;;;;5076511;28;20815;-60
2023/01/15 03:17:14;;;;;;;0.30;0.10;;;11.10;99.90;;;;;;5075207;28;20502;-60
2023/01/15 03:19:48;;;;;;;0.30;0.10;;;11.10;99.90;;;;;;5075724;28;20808;-61
2023/01/15 03:22:21;;;;;;;0.40;0.20;;;11.10;99.90;;;;;;5075400;28;20454;-60
2023/01/15 03:24:52;;;;;;;0.30;0.10;;;11.10;99.90;;;;;;5074181;28;20429;-60
2023/01/15 03:27:21;;;;;;;0.30;0.10;;;11.20;99.90;;;;;;5074770;28;20747;-60
2023/01/15 03:29:54;;;;;;;0.30;0.10;;;11.20;99.90;;;;;;5075741;28;20529;-60
2023/01/15 03:32:22;;;;;;;0.40;0.20;;;11.30;99.90;;;;;;5076231;28;20480;-60
2023/01/15 03:34:51;;;;;;;0.50;0.10;;;11.40;99.90;;;;;;5076283;28;20655;-60
2023/01/15 03:37:20;;;;;;;0.50;0.20;;;11.50;99.90;;;;;;5075350;28;20412;-59
2023/01/15 03:39:48;;;;;;;0.50;0.20;;;11.50;99.90;;;;;;5075751;28;20431;-59
2023/01/15 03:42:29;;;;;;;0.60;0.10;;;11.60;99.90;;;;;;5075690;28;20506;-60
2023/01/15 03:45:07;;;;;;;0.40;0.20;;;11.70;99.90;;;;;;5075999;28;20851;-59
2023/01/15 03:47:46;;;;;;;0.30;0.10;;;11.80;99.90;;;;;;5075445;28;20873;-60
2023/01/15 03:50:22;;;;;;;0.30;0.10;;;11.90;99.90;;;;;;5075302;28;20434;-60
2023/01/15 03:53:01;;;;;;;0.30;0.10;;;11.90;99.90;;;;;;5075152;28;21058;-59
2023/01/15 03:55:38;;;;;;;0.70;0.20;;;12.00;99.90;;;;;;5075694;28;20424;-59
2023/01/15 03:58:12;;;;;;;0.30;0.10;;;12.00;99.90;;;;;;5074859;28;20420;-59
2023/01/15 04:00:45;;;;;;;0.30;0.10;;;12.00;99.90;;;;;;5075495;28;20697;-59
2023/01/15 04:03:14;;;;;;;0.30;0.10;;;12.00;99.90;;;;;;5075520;28;20423;-61
2023/01/15 04:05:43;;;;;;;0.30;0.10;;;12.20;99.90;;;;;;5075639;28;20514;-59
2023/01/15 04:08:12;;;;;;;0.30;0.10;;;12.10;99.90;;;;;;5075286;28;20526;-60
2023/01/15 04:10:51;;;;;;;0.30;0.10;;;12.10;99.90;;;;;;5075291;28;20427;-59
2023/01/15 04:13:21;;;;;;;0.30;0.10;;;12.10;99.90;;;;;;5074839;28;20514;-59
2023/01/15 04:15:49;;;;;;;0.30;0.10;;;12.20;99.90;;;;;;5075275;28;20529;-59
2023/01/15 04:18:17;;;;;;;0.30;0.10;;;12.20;99.90;;;;;;5075062;28;20763;-59
2023/01/15 04:20:44;;;;;;;0.30;0.10;;;12.20;99.90;;;;;;5075572;28;20672;-59
2023/01/15 04:23:11;;;;;;;0.30;0.10;;;12.20;99.90;;;;;;5075478;28;20416;-59
2023/01/15 04:25:39;;;;;;;0.30;0.10;;;12.20;99.90;;;;;;5075031;28;20423;-60
2023/01/15 04:28:07;;;;;;;0.30;0.10;;;12.20;99.90;;;;;;5075029;28;20467;-59
2023/01/15 04:30:35;;;;;;;0.30;0.10;;;12.20;99.90;;;;;;5075286;28;20437;-59
2023/01/15 04:33:04;;;;;;;0.30;0.10;;;12.20;99.90;;;;;;5075213;28;20506;-60
2023/01/15 04:35:31;;;;;;;0.30;0.10;;;12.20;99.90;;;;;;5075388;28;20451;-60
2023/01/15 04:37:59;;;;;;;0.30;0.10;;;12.20;99.90;;;;;;5074559;28;20443;-60
2023/01/15 04:45:57;;;;;;;0.30;0.10;;;12.20;99.90;;;;;;5074535;28;20454;-60
2023/01/15 04:48:26;;;;;;;0.30;0.10;;;12.20;99.90;;;;;;5075084;28;20866;-60
2023/01/15 04:50:53;;;;;;;0.30;0.10;;;12.10;99.90;;;;;;5075133;28;20431;-60
2023/01/15 04:53:20;;;;;;;0.30;0.10;;;12.10;99.90;;;;;;5074644;28;20506;-61
2023/01/15 04:55:47;;;;;;;0.30;0.10;;;12.10;99.90;;;;;;5074682;28;20434;-60
2023/01/15 04:58:15;;;;;;;0.30;0.10;;;12.10;99.90;;;;;;5074370;28;20422;-60
2023/01/15 05:00:42;;;;;;;0.30;0.10;;;12.20;99.90;;;;;;5074991;28;20427;-60
2023/01/15 05:03:09;;;;;;;0.30;0.10;;;12.20;99.90;;;;;;5074993;28;20430;-60
2023/01/15 05:05:38;;;;;;;0.30;0.10;;;12.20;99.90;;;;;;5074505;28;20424;-60
2023/01/15 05:08:05;;;;;;;0.30;0.10;;;12.20;99.90;;;;;;5074390;28;20428;-60
2023/01/15 05:10:32;;;;;;;0.30;0.20;;;12.20;99.90;;;;;;5073511;28;20427;-60
2023/01/15 05:13:00;;;;;;;0.30;0.10;;;12.20;99.90;;;;;;5074920;28;20463;-60
2023/01/15 05:15:27;;;;;;;0.30;0.10;;;12.20;99.90;;;;;;5074449;28;20514;-60
2023/01/15 05:17:54;;;;;;;0.30;0.10;;;12.20;99.90;;;;;;5073974;28;20426;-60
2023/01/15 05:20:21;;;;;;;0.30;0.10;;;12.20;99.90;;;;;;5074613;28;20743;-60
2023/01/15 05:22:50;;;;;;;0.40;0.10;;;12.20;99.90;;;;;;5074880;28;20780;-60
2023/01/15 05:25:17;;;;;;;0.30;0.10;;;12.20;99.90;;;;;;5074815;28;20467;-59
2023/01/15 05:27:44;;;;;;;0.30;0.10;;;12.10;99.90;;;;;;5074237;28;20408;-58
2023/01/15 05:30:13;;;;;;;0.30;0.10;;;11.80;99.90;;;;;;5074106;28;20437;-58
2023/01/15 05:32:40;;;;;;;0.40;0.10;;;11.30;99.90;;;;;;5074569;28;20465;-55
2023/01/15 05:35:08;;;;;;;0.30;0.10;;;11.00;99.90;;;;;;5073969;28;20423;-56
2023/01/15 05:37:35;;;;;;;0.30;0.10;;;10.40;99.90;;;;;;5074478;28;20523;-56
2023/01/15 05:40:04;;;;;;;0.30;0.10;;;10.10;99.90;;;;;;5074475;28;20419;-57
2023/01/15 05:42:31;;;;;;;0.30;0.10;;;9.80;99.90;;;;;;5074613;28;20430;-56
2023/01/15 05:44:59;;;;;;;0.30;0.10;;;9.70;99.90;;;;;;5074144;28;20427;-58
2023/01/15 05:47:26;;;;;;;0.40;0.10;;;9.60;99.90;;;;;;5074108;28;20506;-58
2023/01/15 05:49:53;;;;;;;0.30;0.10;;;9.40;99.90;;;;;;5074436;28;20442;-55
2023/01/15 05:52:20;;;;;;;0.30;0.10;;;9.40;99.90;;;;;;5074404;28;20495;-58
2023/01/15 05:54:49;;;;;;;0.30;0.10;;;9.40;99.90;;;;;;5074378;28;20427;-59
2023/01/15 05:57:18;;;;;;;0.30;0.10;;;9.30;99.90;;;;;;5073600;28;20419;-58
2023/01/15 05:59:46;;;;;;;0.30;0.10;;;9.30;99.90;;;;;;5073405;28;20585;-58
2023/01/15 06:02:13;;;;;;;0.30;0.10;;;9.20;99.90;;;;;;5073338;28;20430;-58
2023/01/15 06:04:40;;;;;;;0.30;0.10;;;9.10;99.90;;;;;;5073232;28;20514;-59
2023/01/15 06:07:07;;;;;;;0.30;0.10;;;9.10;99.90;;;;;;5074010;28;20506;-59
2023/01/15 06:09:34;;;;;;;0.30;0.10;;;9.10;99.90;;;;;;5072852;28;20435;-59
2023/01/15 06:12:01;;;;;;;0.30;0.10;;;9.10;99.90;;;;;;5072335;28;20726;-59
2023/01/15 06:14:30;;;;;;;0.30;0.10;;;9.10;99.90;;;;;;5075623;28;20427;-59
2023/01/15 06:16:57;;;;;;;0.30;0.10;;;9.10;99.90;;;;;;5076641;28;20425;-59
2023/01/15 06:19:24;;;;;;;0.30;0.10;;;9.10;99.90;;;;;;5076421;28;20429;-60
2023/01/15 06:21:52;;;;;;;0.30;0.10;;;9.00;99.90;;;;;;5076727;28;20476;-60
2023/01/15 06:24:19;;;;;;;0.30;0.10;;;8.90;99.90;;;;;;5076949;28;20522;-60
2023/01/15 06:26:46;;;;;;;0.40;0.10;;;8.80;99.90;;;;;;5077853;28;20419;-60
2023/01/15 06:29:17;;;;;;;0.30;0.10;;;8.80;99.90;;;;;;5077363;28;20853;-60
2023/01/15 06:31:46;;;;;;;0.30;0.10;;;8.80;99.90;;;;;;5077779;28;20424;-59
2023/01/15 06:34:13;;;;;;;0.30;0.10;;;8.60;99.90;;;;;;5077684;28;20424;-59
2023/01/15 06:36:40;;;;;;;0.30;0.10;;;8.70;99.90;;;;;;5077505;28;20918;-59
2023/01/15 06:39:07;;;;;;;0.30;0.10;;;8.60;99.90;;;;;;5077361;28;20518;-59
2023/01/15 06:47:21;;;;;;;0.30;0.10;;;8.50;99.90;;;;;;5077163;28;20460;-59
2023/01/15 06:49:49;;;;;;;0.30;0.10;;;8.50;99.90;;;;;;5077420;28;20432;-59
2023/01/15 06:52:16;;;;;;;0.30;0.10;;;8.40;99.90;;;;;;5077781;28;20500;-59
2023/01/15 06:54:43;;;;;;;0.30;0.10;;;8.40;99.90;;;;;;5077180;28;20437;-58
2023/01/15 06:57:10;;;;;;;0.30;0.10;;;8.30;99.90;;;;;;5077247;28;21026;-59
2023/01/15 06:59:37;;;;;;;0.30;0.10;;;8.30;99.90;;;;;;5077249;28;20423;-58
2023/01/15 07:02:06;;;;;;;0.30;0.10;;;8.10;99.90;;;;;;5077261;28;20874;-62
2023/01/15 07:04:33;;;;;;;0.30;0.10;;;8.00;99.90;;;;;;5076986;28;20427;-59
2023/01/15 07:07:01;;;;;;;0.30;0.10;;;7.90;99.90;;;;;;5076932;28;20730;-59
2023/01/15 07:09:28;;;;;;;0.30;0.10;;;8.00;99.90;;;;;;5076549;28;20719;-59
2023/01/15 07:11:55;;;;;;;0.30;0.10;;;7.90;99.90;;;;;;5077043;28;20890;-59
2023/01/15 07:14:24;;;;;;;0.30;0.10;;;7.90;99.90;;;;;;5076870;28;20471;-58
2023/01/15 07:16:52;;;;;;;0.30;0.10;;;7.90;99.90;;;;;;5076618;28;20452;-59
2023/01/15 07:19:21;;;;;;;0.30;0.10;;;7.80;99.90;;;;;;5076650;28;20447;-60
2023/01/15 07:21:48;;;;;;;0.30;0.10;;;7.70;99.90;;;;;;5076859;28;20827;-59
2023/01/15 07:24:16;;;;;;;0.30;0.10;;;7.60;99.90;;;;;;5076832;28;20434;-60
2023/01/15 07:26:44;;;;;;;0.30;0.10;;;7.70;99.90;;;;;;5076606;28;20420;-59
2023/01/15 07:29:12;;;;;;;0.30;0.10;;;7.50;99.90;;;;;;5076070;28;20859;-59
2023/01/15 07:31:40;;;;;;;0.40;0.10;;;7.60;99.90;;;;;;5076379;28;20426;-59
2023/01/15 07:34:07;;;;;;;1.40;0.10;;;7.50;99.90;;;;;;5076264;28;20794;-59
2023/01/15 07:36:36;;;;;;;0.30;0.10;;;7.40;99.90;;;;;;5075814;28;20415;-60
2023/01/15 07:39:04;;;;;;;0.30;0.10;;;7.40;99.90;;;;;;5076055;28;20446;-59
2023/01/15 07:49:45;;;;;;;0.30;0.10;;;7.50;99.90;;;;;;5073348;28;20523;-60
2023/01/15 07:52:15;;;;;;;0.30;0.10;;;7.40;99.90;;;;;;5074475;28;20431;-60
2023/01/15 07:54:43;;;;;;;0.30;0.10;;;7.30;99.90;;;;;;5072698;28;20435;-60
2023/01/15 07:57:11;;;;;;;0.30;0.10;;;7.30;99.90;;;;;;5055094;28;20422;-60
2023/01/15 07:59:38;;;;;;;0.30;0.10;;;7.50;99.90;;;;;;5063189;28;20428;-61
2023/01/15 08:02:06;;;;;;;0.30;0.10;;;7.50;99.90;;;;;;5075369;28;20518;-60
2023/01/15 08:04:33;;;;;;;0.30;0.10;;;7.70;99.90;;;;;;5074635;28;20415;-60
2023/01/15 08:07:00;;;;;;;0.80;0.10;;;7.70;99.90;;;;;;5068565;28;20523;-60
2023/01/15 08:09:29;;;;;;;0.30;0.10;;;7.50;99.90;;;;;;5064096;28;20443;-59
2023/01/15 08:17:27;;;;;;;0.38;0.10;;;7.40;99.90;;;;;;5064442;28;20493;-58
2023/01/15 08:19:55;;;;;;;0.30;0.10;;;7.40;99.90;;;;;;5074529;28;20445;-59
2023/01/15 08:22:22;;;;;;;0.30;0.10;;;7.40;99.90;;;;;;5068675;28;20762;-58
2023/01/15 08:24:51;;;;;;;0.30;0.10;;;7.60;99.90;;;;;;5071004;28;20524;-58
2023/01/15 08:27:18;;;;;;;0.40;0.10;;;7.50;99.90;;;;;;5071708;28;20473;-56
2023/01/15 08:29:45;;;;;;;0.30;0.10;;;7.60;99.90;;;;;;5062117;28;20442;-54
2023/01/15 08:32:12;;;;;;;0.30;0.10;;;7.60;99.90;;;;;;5075192;28;20571;-50
2023/01/15 08:34:39;;;;;;;0.73;0.10;;;7.60;99.90;;;;;;5073870;28;20432;-53
2023/01/15 08:37:06;;;;;;;0.30;0.10;;;7.50;99.90;;;;;;5072732;28;20438;-51
2023/01/15 08:39:34;;;;;;;0.30;0.10;;;7.40;99.90;;;;;;5070029;28;20827;-58
2023/01/15 08:42:02;;;;;;;0.30;0.10;;;7.50;99.90;;;;;;5069560;28;20428;-58
2023/01/15 08:44:30;;;;;;;1.10;0.10;;;7.50;99.90;;;;;;5072680;28;21021;-58
2023/01/15 08:46:57;;;;;;;0.30;0.10;;;7.80;99.90;;;;;;5072723;28;20421;-58
2023/01/15 08:49:24;;;;;;;0.60;0.10;;;8.10;99.90;;;;;;5061174;28;20436;-58
2023/01/15 08:51:52;;;;;;;0.30;0.10;;;8.10;99.90;;;;;;5069738;28;20797;-57
2023/01/15 08:54:21;;;;;;;0.30;0.10;;;8.00;99.90;;;;;;5068867;28;20429;-58
2023/01/15 08:56:49;;;;;;;1.50;0.30;;;7.90;99.90;;;;;;5066057;28;20433;-58
2023/01/15 08:59:18;;;;;;;0.70;0.28;;;8.10;99.90;;;;;;5072710;28;20435;-58
2023/01/15 09:01:45;;;;;;;2.80;0.50;;;8.10;99.90;;;;;;5071035;28;20859;-58
2023/01/15 09:04:14;;;;;;;5.10;1.10;;;8.20;99.90;;;;;;5072114;28;20534;-58
2023/01/15 09:06:42;;;;;;;0.30;0.10;;;8.10;99.90;;;;;;5072125;28;20930;-58
2023/01/15 09:09:09;;;;;;;0.40;0.10;;;7.90;99.90;;;;;;5059969;28;20449;-58
2023/01/15 09:11:39;;;;;;;1.60;0.40;;;7.60;99.90;;;;;;5056626;28;20424;-58
2023/01/15 09:14:06;;;;;;;0.80;0.17;;;7.40;99.90;;;;;;5066942;28;20427;-58
2023/01/15 09:16:36;;;;;;;0.30;0.10;;;7.40;99.90;;;;;;5062713;28;20423;-59
2023/01/15 09:19:04;;;;;;;0.30;0.10;;;7.30;99.90;;;;;;5071663;28;20438;-58
2023/01/15 09:21:31;;;;;;;0.30;0.10;;;7.20;99.90;;;;;;5068407;28;20501;-59
2023/01/15 09:23:58;;;;;;;0.30;0.10;;;7.10;99.90;;;;;;5061451;28;20489;-58
2023/01/15 09:26:30;;;;;;;0.43;0.20;;;7.10;99.90;;;;;;5061403;28;20433;-57
2023/01/15 09:28:57;;;;;;;0.40;0.20;;;7.00;99.90;;;;;;5067340;28;20515;-58
2023/01/15 09:31:25;;;;;;;0.40;0.20;;;6.90;99.90;;;;;;5071297;28;20424;-57
2023/01/15 09:33:54;;;;;;;0.30;0.10;;;6.90;99.90;;;;;;5066034;28;20429;-56
2023/01/15 09:36:25;;;;;;;0.40;0.10;;;7.00;99.90;;;;;;5065076;28;20430;-57
2023/01/15 09:38:52;;;;;;;0.50;0.20;;;7.30;99.90;;;;;;5070896;28;20447;-58
2023/01/15 09:44:27;;;;;;;2.40;0.50;;;7.80;99.90;;;;;;5053450;28;20711;-58
2023/01/15 09:47:04;;;;;;;3.10;0.68;;;8.40;99.90;;;;;;5070588;28;20449;-57
2023/01/15 09:49:51;;;;;;;0.60;0.20;;;8.80;99.90;;;;;;5066214;28;20442;-57
2023/01/15 09:52:30;;;;;;;0.50;0.20;;;8.90;99.90;;;;;;5074129;28;20442;-57
2023/01/15 09:55:04;;;;;;;0.77;0.40;;;8.50;99.90;;;;;;5075758;28;20850;-58
2023/01/15 09:57:33;;;;;;;0.77;0.30;;;8.40;99.90;;;;;;5063151;28;20984;-58
2023/01/15 10:00:01;;;;;;;0.30;0.10;;;8.40;99.90;;;;;;5065089;28;20431;-56
2023/01/15 10:02:37;;;;;;;0.50;0.20;;;8.10;99.90;;;;;;5068163;28;20425;-58
2023/01/15 10:05:15;;;;;;;1.58;0.28;;;8.00;99.90;;;;;;5072417;28;20455;-59
2023/01/15 10:07:51;;;;;;;0.40;0.20;;;7.90;99.90;;;;;;5075004;28;20435;-58
2023/01/15 10:10:23;;;;;;;2.20;0.30;;;7.70;99.90;;;;;;5070077;28;20440;-57
2023/01/15 10:12:54;;;;;;;0.30;0.10;;;7.80;99.90;;;;;;5070880;28;20742;-57
2023/01/15 10:15:32;;;;;;;0.90;0.30;;;7.80;99.90;;;;;;5070423;28;20468;-58
2023/01/15 10:18:00;;;;;;;0.50;0.20;;;7.90;99.90;;;;;;5070978;28;20441;-58
2023/01/15 10:20:44;;;;;;;0.40;0.20;;;8.00;99.90;;;;;;5071357;28;20491;-58
2023/01/15 10:23:27;;;;;;;0.80;0.20;;;8.10;99.90;;;;;;5070839;28;20562;-57
2023/01/15 10:26:02;;;;;;;0.30;0.10;;;7.90;99.90;;;;;;5065929;28;20441;-57
2023/01/15 10:28:45;;;;;;;0.40;0.10;;;7.60;99.90;;;;;;5070715;28;20553;-58
2023/01/15 10:31:19;;;;;;;0.30;0.10;;;7.30;99.90;;;;;;5065975;28;20486;-57
2023/01/15 10:33:58;;;;;;;0.60;0.30;;;7.00;99.90;;;;;;5064109;28;21832;-57
2023/01/15 10:36:32;;;;;;;0.30;0.10;;;6.90;99.90;;;;;;5071124;28;20514;-55
2023/01/15 10:39:05;;;;;;;0.30;0.10;;;6.80;99.90;;;;;;5066082;28;20467;-56
2023/01/15 10:41:44;;;;;;;0.30;0.10;;;6.80;99.90;;;;;;5065038;28;20433;-57
2023/01/15 10:44:18;;;;;;;0.70;0.30;;;6.70;99.90;;;;;;5074014;28;20822;-57
2023/01/15 10:46:53;;;;;;;0.40;0.10;;;7.20;99.90;;;;;;5065023;28;20427;-57
2023/01/15 10:49:21;;;;;;;0.47;0.20;;;7.50;99.90;;;;;;5067957;28;20437;-58
2023/01/15 10:51:56;;;;;;;0.40;0.20;;;7.60;99.90;;;;;;5072044;28;20499;-57
2023/01/15 10:54:29;;;;;;;1.30;0.20;;;7.60;99.90;;;;;;5061625;28;20438;-53
2023/01/15 10:57:06;;;;;;;0.40;0.20;;;7.90;99.90;;;;;;5065323;28;20507;-56
2023/01/15 10:59:41;;;;;;;0.60;0.10;;;7.90;99.90;;;;;;5068423;28;20526;-55
2023/01/15 11:02:25;;;;;;;0.43;0.20;;;7.50;99.90;;;;;;5056605;28;20437;-56
2023/01/15 11:04:53;;;;;;;0.80;0.10;;;7.30;99.90;;;;;;5062602;28;20947;-57
2023/01/15 11:07:26;;;;;;;0.30;0.10;;;7.20;99.90;;;;;;5066483;28;20429;-56
2023/01/15 11:09:55;;;;;;;0.40;0.20;;;7.10;99.90;;;;;;5061520;28;20435;-57
2023/01/15 11:20:56;;;;;;;0.30;0.10;;;7.10;99.90;;;;;;5063451;28;20441;-53
2023/01/15 11:23:24;;;;;;;0.30;0.10;;;6.60;99.90;;;;;;5059617;28;20763;-58
2023/01/15 11:25:55;;;;;;;0.30;0.10;;;6.50;99.90;;;;;;5060549;28;20439;-58
2023/01/15 11:28:34;;;;;;;0.30;0.10;;;6.50;99.90;;;;;;5067882;28;20841;-58
2023/01/15 11:31:01;;;;;;;0.70;0.50;;;6.30;99.90;;;;;;5059396;28;20518;-58
2023/01/15 11:33:30;;;;;;;0.35;0.10;;;6.10;99.90;;;;;;5067214;28;20437;-58
2023/01/15 11:36:00;;;;;;;1.30;0.20;;;6.10;99.90;;;;;;5072124;28;20427;-57
2023/01/15 11:38:30;;;;;;;0.30;0.10;;;6.10;99.90;;;;;;5067809;28;20945;-57
2023/01/15 11:40:59;;;;;;;0.30;0.10;;;6.00;99.90;;;;;;5060605;28;20420;-58
2023/01/15 11:51:57;;;;;;;0.40;0.10;;;5.80;99.90;;;;;;5060517;28;20412;-58
2023/01/15 11:54:26;;;;;;;0.30;0.10;;;5.80;99.90;;;;;;5068351;28;20447;-58
2023/01/15 11:56:55;;;;;;;0.30;0.10;;;6.30;99.90;;;;;;5071179;28;20445;-55
2023/01/15 11:59:23;;;;;;;0.40;0.10;;;6.40;99.90;;;;;;5065685;28;20854;-58
2023/01/15 12:01:58;;;;;;;0.50;0.20;;;6.40;99.90;;;;;;5069739;28;20514;-57
2023/01/15 12:04:37;;;;;;;0.40;0.10;;;6.30;99.90;;;;;;5072894;28;20458;-56
2023/01/15 12:07:06;;;;;;;0.30;0.20;;;6.30;99.90;;;;;;5064756;28;20874;-56
2023/01/15 12:09:51;;;;;;;1.20;0.30;;;6.50;99.90;;;;;;5059761;28;20723;-58
2023/01/15 12:12:26;;;;;;;0.50;0.20;;;6.70;99.90;;;;;;5065350;28;21001;-57
2023/01/15 12:15:13;;;;;;;0.40;0.20;;;7.20;99.90;;;;;;5062110;28;20826;-59
2023/01/15 12:18:09;;;;;;;0.50;0.20;;;7.40;99.90;;;;;;5055436;28;22173;-58
2023/01/15 12:20:51;;;;;;;0.40;0.20;;;7.40;99.90;;;;;;5071951;28;20462;-58
2023/01/15 12:23:38;;;;;;;0.40;0.20;;;7.00;99.90;;;;;;5074285;28;20535;-61
2023/01/15 12:26:16;;;;;;;0.50;0.20;;;6.80;99.90;;;;;;5061254;28;20754;-59
2023/01/15 12:28:53;;;;;;;0.60;0.30;;;7.00;99.90;;;;;;5069516;28;20430;-56
2023/01/15 12:31:25;;;;;;;0.50;0.20;;;6.80;99.90;;;;;;5063040;28;20439;-58
2023/01/15 12:33:57;;;;;;;0.80;0.20;;;6.60;99.90;;;;;;5060094;28;20431;-56
2023/01/15 12:36:29;;;;;;;0.40;0.10;;;6.30;99.90;;;;;;5062306;28;20684;-55
2023/01/15 12:39:00;;;;;;;0.50;0.10;;;6.40;99.90;;;;;;5055491;28;20444;-56
2023/01/15 12:47:10;;;;;;;0.70;0.20;;;6.00;99.90;;;;;;5063736;28;20435;-53
2023/01/15 12:49:43;;;;;;;0.40;0.20;;;5.90;99.90;;;;;;5061744;28;20447;-60
2023/01/15 12:52:14;;;;;;;0.30;0.10;;;5.80;99.90;;;;;;5060613;28;20459;-52
2023/01/15 12:54:52;;;;;;;0.30;0.10;;;5.80;99.90;;;;;;5066463;28;20439;-53
2023/01/15 12:57:31;;;;;;;0.40;0.20;;;5.70;99.90;;;;;;5066246;28;20511;-49
2023/01/15 13:00:03;;;;;;;0.50;0.10;;;5.60;99.90;;;;;;5064393;28;20469;-51
2023/01/15 13:02:37;;;;;;;1.27;0.20;;;5.60;99.90;;;;;;5057222;28;20433;-52
2023/01/15 13:05:17;;;;;;;0.40;0.10;;;5.60;99.90;;;;;;5067914;28;21107;-51
2023/01/15 13:07:50;;;;;;;0.50;0.20;;;5.60;99.90;;;;;;5070232;28;20435;-51
2023/01/15 13:10:22;;;;;;;1.00;0.20;;;5.70;99.90;;;;;;5065473;28;20438;-48
2023/01/15 13:12:53;;;;;;;0.40;0.20;;;5.70;99.90;;;;;;5061586;28;20425;-50
2023/01/15 13:15:27;;;;;;;0.50;0.20;;;6.00;99.90;;;;;;5061311;28;20431;-52
2023/01/15 13:18:04;;;;;;;0.50;0.20;;;6.30;99.90;;;;;;5061943;28;20520;-52
2023/01/15 13:20:44;;;;;;;0.40;0.20;;;6.50;99.90;;;;;;5070911;28;20436;-51
2023/01/15 13:23:26;;;;;;;0.30;0.10;;;6.30;99.90;;;;;;5070693;28;20453;-49
2023/01/15 13:26:05;;;;;;;0.70;0.20;;;6.30;99.90;;;;;;5076981;28;20446;-47
2023/01/15 13:28:50;;;;;;;1.05;0.50;;;6.10;99.90;;;;;;5074319;28;20737;-51
2023/01/15 13:31:37;;;;;;;0.70;0.30;;;6.00;99.90;;;;;;5073487;28;20653;-50
2023/01/15 13:34:11;;;;;;;1.00;0.50;;;6.00;99.90;;;;;;5073628;28;20807;-48
2023/01/15 13:36:42;;;;;;;0.50;0.20;;;6.30;99.90;;;;;;5075697;28;20430;-51
2023/01/15 13:39:18;;;;;;;1.03;0.30;;;6.30;99.90;;;;;;5067889;28;20433;-47
2023/01/15 13:44:41;;;;;;;1.17;0.20;;;6.00;99.90;;;;;;5061236;28;20478;-52
2023/01/15 13:47:12;;;;;;;1.50;0.30;;;6.00;99.90;;;;;;5068770;28;20495;-48
2023/01/15 13:49:46;;;;;;;1.30;0.20;;;6.10;99.90;;;;;;5075851;28;20435;-51
2023/01/15 13:52:23;;;;;;;0.40;0.17;;;6.20;99.90;;;;;;5076577;28;20459;-52
2023/01/15 13:54:50;;;;;;;0.60;0.20;;;6.20;99.90;;;;;;5070621;28;21064;-50
2023/01/15 13:57:34;;;;;;;0.40;0.20;;;6.20;99.90;;;;;;5072689;28;20419;-53
2023/01/15 14:00:05;;;;;;;0.60;0.30;;;6.10;99.90;;;;;;5077140;28;20419;-52
2023/01/15 14:02:34;;;;;;;0.40;0.20;;;6.10;99.90;;;;;;5074244;28;20422;-49
2023/01/15 14:05:13;;;;;;;0.60;0.20;;;6.00;99.90;;;;;;5063832;28;20755;-49
2023/01/15 14:07:40;;;;;;;0.50;0.20;;;6.10;99.90;;;;;;5070819;28;20437;-51
2023/01/15 14:10:27;;;;;;;1.58;0.20;;;6.20;99.90;;;;;;5061183;28;20449;-54